Tiempo atmosférico en la estación meteorológica de Bilbao Aeropuerto, Bizkaia (42 m.)

Fecha
DESCASC
Temp. máxima en grados centígrados (hora)
DESCASC
Temp. mínima en grados centígrados (hora)
DESCASC
Temp. media en grados centígrados
DESCASC
Racha de viento máxima en m/sg (hora)
DESCASC
Velocidad máxima media en intervalos de 10 minutos(hora)
DESCASC
Precipitaciones diarias en mm
DESCASC
Precipitaciones de 00:00 a 06:00 en mm
DESCASC
Precipitaciones de 06:00 a 12:00 en mm
DESCASC
Precipitaciones de 12:00 a 18:00 en mm
DESCASC
Precipitaciones de 18:00 a 24:00 en mm
DESCASC
23-11-2017 23.2 (13:40) 17.8 (06:40) 20.5 17.5 (08:00) 10.83 (08:20) 0.1 0 0.1 0 0
22-11-2017 23.5 (15:50) 7.3 (02:10) 15.4 15 (14:10) 6.67 (21:50) 0 0 0 0 0
21-11-2017 21.3 (15:30) 4.2 (08:30) 12.7 9.17 (23:59) 5.28 (23:50) 0 0 0 0 0
20-11-2017 21.1 (15:20) 2.8 (07:50) 12 6.67 (22:00) 3.61 (10:50) 0 0 0 0 0
19-11-2017 16.5 (15:40) 3.9 (00:00) 10.2 6.11 (22:00) 3.06 (22:30) 0 0 0 0 0
18-11-2017 16.3 (13:30) 4.8 (00:00) 10.5 6.67 (14:20) 4.44 (14:20) 0 0 0 0 0
17-11-2017 16.9 (14:20) 3.7 (00:00) 10.3 6.11 (15:00) 3.33 (15:10) 0 0 0 0 0
16-11-2017 17.8 (14:30) 2.5 (00:00) 10.1 4.72 (08:10) 2.78 (00:20) 0 0 0 0 0
15-11-2017 15.8 (16:10) 1.3 (00:00) 8.6 4.72 (07:50) 2.78 (07:40) 0 0 0 0 0
14-11-2017 13 (12:40) 3.7 (00:00) 8.4 8.89 (14:00) 5 (14:10) 0 0 0 0 0
13-11-2017 13.5 (14:50) 6.8 (00:00) 10.2 12.5 (13:40) 7.22 (13:10) 1.6 0 1.6 0 0
12-11-2017 17.1 (15:00) 11.8 (00:00) 14.5 13.89 (20:10) 8.06 (23:40) 3.4 0 0 0.7 2.7
11-11-2017 16 (15:50) 12 (00:00) 14 10.83 (13:10) 7.5 (13:10) 0.8 0.3 0.5 0 0
10-11-2017 15.3 (13:00) 8.3 (00:00) 11.8 13.89 (22:10) 7.5 (15:10) 8.8 2.7 1.6 2.6 1.9
09-11-2017 14.5 (14:20) 6.2 (00:00) 10.3 9.17 (12:50) 6.11 (13:30) 3.9 3.7 0.1 0 0.1
08-11-2017 13.3 (00:10) 5.7 (00:00) 9.5 15 (13:20) 7.5 (13:20) 43.1 8.5 16.8 16.6 1.2
07-11-2017 15.9 (15:00) 4.4 (00:00) 10.1 11.67 (22:50) 6.67 (23:10) -- 0 -- 0 5.6
06-11-2017 14.4 (11:20) 8.3 (00:00) 11.3 10.83 (12:50) 7.22 (12:50) 5.2 0 2.7 1 1.5
05-11-2017 14.5 (02:00) 10.1 (00:00) 12.3 14.44 (19:20) 8.06 (19:20) 27.4 2.3 4.6 12 8.5
04-11-2017 18.7 (13:30) 9.3 (00:00) 14 12.78 (23:59) 5.28 (23:10) 23 0 0 11.5 11.5
03-11-2017 23.9 (15:10) 11.9 (00:00) 17.9 10.83 (12:20) 5.83 (13:20) 0 0 0 0 0
02-11-2017 24.3 (14:40) 15.1 (05:00) 19.7 11.67 (08:40) 6.94 (11:10) 0 0 0 0 0
01-11-2017 22.5 (13:50) 12.2 (00:00) 17.3 12.5 (04:50) 7.78 (04:20) 0 0 0 0 0
31-10-2017 18.1 (16:10) 7 (00:00) 12.6 9.17 (15:30) 5.28 (23:00) 0 0 0 0 0
30-10-2017 17.4 (11:30) 9.4 (00:00) 13.4 12.78 (11:40) 7.5 (11:40) 7.7 5.8 1.9 0 0
29-10-2017 15.6 (13:40) 8.1 (00:00) 11.9 5.83 (21:50) 3.33 (21:40) 4.2 0 0 1.1 3.1
28-10-2017 19.2 (15:20) 10.1 (00:00) 14.7 6.67 (13:20) 4.44 (16:00) 0.2 0 0.2 0 0
27-10-2017 20.2 (14:00) 10.2 (00:00) 15.2 7.78 (10:00) 3.89 (17:00) 0 0 0 0 0
26-10-2017 23.9 (15:00) 12.1 (00:00) 18 8.33 (08:10) 5.56 (15:10) 0 0 0 0 0

Gráficas

Temp. máximas Temp. mínimas Temp. medias Precipitaciones Rachas de viento máximas Velocidades máximas media en intervalos de 10 minutos

Datos horarios

Fecha y hora oficial Temperatura (ºC) Velocidad del viento (km/h) Dirección del viento Racha (km/h) Dirección de racha Precipitación (mm) Presión (hPa) Tendencia (hPa) Humedad (%)
2017-11-24 23:00:00 12.9 2 Oeste 18 Norte 0.8 1012.8 0.5 97
2017-11-24 22:00:00 13.5 4 Noroeste 13 Noroeste 0 1012.4 0.6 94
2017-11-24 21:00:00 13.6 5 Noroeste 24 Noroeste 0 1012.4 0.5 96
2017-11-24 20:00:00 14.4 14 Noroeste 22 Noroeste 0.4 1012.3 0.4 98
2017-11-24 19:00:00 15 4 Noroeste 11 Noroeste 0 1011.8 0.3 92
2017-11-24 18:00:00 15.2 3 Noroeste 8 Noroeste 0 1011.9 0.2 90
2017-11-24 17:00:00 15.6 4 Noroeste 17 Noroeste 0 1011.9 -0.2 89
2017-11-24 16:00:00 16.2 11 Noroeste 17 Noroeste 0 1011.5 -0.9 87
2017-11-24 15:00:00 16.6 7 Oeste 13 Oeste 0 1011.7 -0.7 85
2017-11-24 14:00:00 16.5 7 Oeste 17 Noroeste 0 1012.1 -0.2 86
2017-11-24 13:00:00 17.3 9 Oeste 15 Noroeste 0 1012.4 0.4 81
2017-11-24 12:00:00 17.3 7 Noroeste 13 Noroeste 0 1012.4 0.6 72
2017-11-24 11:00:00 17 0 Calma 5 Noroeste 0 1012.3 1.2 73
2017-11-24 10:00:00 15.8 4 Noroeste 24 Sudoeste 0 1012 1.5 75
2017-11-24 09:00:00 17.2 12 Sudoeste 24 Oeste 0 1011.8 1.4 63
2017-11-24 08:00:00 16.2 2 Sur 11 Norte 0 1011.1 1.5 66
2017-11-24 07:00:00 17 0 Calma 30 Oeste 0 1010.5 0.9 59
2017-11-24 06:00:00 16.6 4 Sudoeste 18 Sudoeste 0.2 1010.4 1 62
2017-11-24 05:00:00 19.3 7 Sur 24 Sudoeste 0 1009.6 0.1 42
2017-11-24 04:00:00 19.4 2 Nordeste 22 Oeste 0 1009.6 0.1 34
2017-11-24 03:00:00 20.2 5 Sudoeste 28 Noroeste 0 1009.4 0 33
2017-11-24 02:00:00 21.6 7 Oeste 37 Sudoeste 0 1009.5 0.2 28
2017-11-24 01:00:00 20.5 5 Sudoeste 30 Sur 0 1009.5 0.4 33
2017-11-24 00:00:00 20.7 10 Sur 22 Sudeste 0 1009.4 0.7 34
2017-11-23 23:00:00 20.7 15 Sudeste 45 Sudoeste 0 1009.3 0.5 40
2017-11-23 22:00:00 22.1 17 Sur 41 Sudoeste 0 1009.1 0.6 32
2017-11-23 21:00:00 21.8 6 Sur 41 Sudoeste 0 1008.7 0.4 36
2017-11-23 20:00:00 22.1 19 Sudoeste 46 Oeste 0 1008.8 0.7 42
2017-11-23 19:00:00 21.9 17 Sudoeste 39 Sudoeste 0 1008.5 0.6 46
2017-11-23 18:00:00 21.9 23 Sudoeste 45 Sudoeste 0 1008.3 0.3 45
2017-11-23 17:00:00 22.4 8 Sudoeste 42 Sudoeste 0 1008.1 0 40
2017-11-23 16:00:00 22.5 15 Sudoeste 32 Sur 0 1007.9 -0.5 40
2017-11-23 15:00:00 22.5 9 Sudoeste 26 Sudoeste 0 1008 -0.7 41
2017-11-23 14:00:00 22.8 16 Sur 35 Sur 0 1008.1 -0.1 40
2017-11-23 13:00:00 21.9 6 Sur 32 Oeste 0 1008.4 1.1 42
2017-11-23 12:00:00 21.1 20 Sudoeste 48 Oeste 0 1008.7 2.3 43
2017-11-23 11:00:00 20.8 20 Sudoeste 55 Sudoeste 0 1008.2 2.8 42
2017-11-23 10:00:00 20.2 27 Sudoeste 48 Sudoeste 0 1007.3 2.3 40
2017-11-23 09:00:00 20.2 27 Sudoeste 63 Sudoeste 0 1006.4 1.8 39
2017-11-23 08:00:00 20.5 37 Sudoeste 63 Oeste 0 1005.4 1.7 36
2017-11-23 07:00:00 19.7 15 Sudoeste 41 Sudoeste 0.1 1005 1.3 34
2017-11-23 06:00:00 21.1 19 Oeste 35 Oeste 0 1004.6 0.8 27
2017-11-23 05:00:00 20.3 14 Sudoeste 26 Sur 0 1003.7 -0.1 29
2017-11-23 04:00:00 20.9 13 Sudoeste 61 Oeste 0 1003.7 0.3 29
2017-11-23 03:00:00 21.1 16 Sudoeste 41 Sudoeste 0 1003.8 0.4 28
2017-11-23 02:00:00 21.5 18 Sudoeste 52 Oeste 0 1003.8 0.9 25
2017-11-23 01:00:00 21.8 17 Sudoeste 37 Oeste 0 1003.4 0.4 23
2017-11-23 00:00:00 21.9 18 Sudoeste 42 Oeste 0 1003.4 0.3 23
2017-11-22 23:00:00 20 15 Sur 37 Sudeste 0 1002.9 -0.4 25
2017-11-22 22:00:00 18 22 Sudeste 37 Sudeste 0 1003 -0.4 31
2017-11-22 21:00:00 17.8 17 Sudeste 33 Este 0 1003.1 -0.3 33
2017-11-22 20:00:00 17.8 13 Sudeste 24 Sudeste 0 1003.3 -0.6 34
2017-11-22 19:00:00 18.3 17 Este 28 Este 0 1003.4 -0.6 33
2017-11-22 18:00:00 20.2 18 Sudeste 35 Sudeste 0 1003.4 -0.7 29
2017-11-22 17:00:00 21.5 14 Sur 35 Sudoeste 0 1003.9 -0.9 26
2017-11-22 16:00:00 23.1 17 Sur 45 Sur 0 1004 -1.9 23
2017-11-22 15:00:00 22.7 15 Sur 54 Sur 0 1004.1 -2.8 25
2017-11-22 14:00:00 22.3 21 Sur 37 Sur 0 1004.8 -2.6 25
2017-11-22 13:00:00 21.8 14 Sur 33 Sur 0 1005.9 -1.6 25
2017-11-22 12:00:00 20.9 5 Sudoeste 28 Sur 0 1006.9 -1.1 26
2017-11-22 11:00:00 19.1 16 Sur 37 Sudoeste 0 1007.4 -0.4 27
2017-11-22 10:00:00 18.2 17 Sur 35 Sur 0 1007.5 -0.5 28
2017-11-22 09:00:00 16.9 14 Sur 39 Sur 0 1008 -0.3 30
2017-11-22 08:00:00 16.5 12 Sur 39 Sur 0 1007.8 -1 29
2017-11-22 07:00:00 16.1 22 Sur 39 Sur 0 1008 -1.4 30
2017-11-22 06:00:00 15.9 18 Sur 35 Sur 0 1008.3 -1.8 31
2017-11-22 05:00:00 13.9 13 Sudeste 30 Sudeste 0 1008.8 -1.6 38
2017-11-22 04:00:00 10.4 8 Nordeste 18 Este 0 1009.4 -1.7 48
2017-11-22 03:00:00 12 12 Este 21 Este 0 1010.1 -1.2 41
2017-11-22 02:00:00 8.2 5 Sudeste 13 Sudeste 0 1010.4 -1.3 63
2017-11-22 01:00:00 9.8 5 Nordeste 26 Sur 0 1011.1 -1 57
2017-11-22 00:00:00 15.5 18 Sur 33 Sur 0 1011.3 -1.2 32
2017-11-21 23:00:00 8.3 6 Sudeste 18 Sudeste 0 1011.7 -0.8 76
2017-11-21 22:00:00 8 6 Este 18 Sudeste 0 1012.1 -0.7 82
2017-11-21 21:00:00 10.1 10 Este 22 Este 0 1012.5 -0.3 74
2017-11-21 20:00:00 10.4 13 Sudeste 21 Sudeste 0 1012.5 -0.8 75
2017-11-21 19:00:00 11.2 16 Sudeste 18 Sudeste 0 1012.8 -0.5 75
2017-11-21 18:00:00 13.6 7 Este 13 Este 0 1012.8 -0.8 65
2017-11-21 17:00:00 17.7 6 Sudeste 15 Sudeste 0 1013.3 -1.3 51
2017-11-21 16:00:00 20.8 6 Sudeste 11 Sudeste 0 1013.3 -2.3 43
2017-11-21 15:00:00 20.9 7 Este 15 Sudeste 0 1013.6 -3 37
2017-11-21 14:00:00 19.9 5 Este 17 Este 0 1014.6 -2.4 39
2017-11-21 13:00:00 19.1 4 Sudeste 13 Sudeste 0 1015.6 -1.6 42
2017-11-21 12:00:00 16.5 8 Sudeste 15 Sudeste 0 1016.6 -0.7 51
2017-11-21 11:00:00 13 7 Sudeste 13 Sudeste 0 1017 0.3 64
2017-11-21 10:00:00 8.8 6 Este 13 Este 0 1017.2 0.8 79
2017-11-21 09:00:00 5.6 5 Este 15 Este 0 1017.3 0.9 88
2017-11-21 08:00:00 4.8 7 Este 15 Este 0 1016.7 0.3 90
2017-11-21 07:00:00 4.8 9 Este 18 Este 0 1016.4 -0.3 94
2017-11-21 06:00:00 4.6 10 Este 17 Este 0 1016.4 -0.8 95
2017-11-21 05:00:00 5.1 9 Este 13 Este 0 1016.4 -0.9 94
2017-11-21 04:00:00 5.6 6 Este 11 Este 0 1016.7 -0.9 95
2017-11-21 03:00:00 5.3 10 Este 15 Este 0 1017.2 -0.6 97
2017-11-21 02:00:00 5.7 9 Este 13 Este 0 1017.3 -0.4 97
2017-11-21 01:00:00 6.2 6 Este 13 Este 0 1017.6 -0.1 97
2017-11-21 00:00:00 6.8 8 Este 13 Este 0 1017.8 0.2 96
2017-11-20 23:00:00 7.2 7 Este 15 Este 0 1017.7 0.6 96
2017-11-20 22:00:00 7.9 10 Este 24 Este 0 1017.7 0.8 96
2017-11-20 21:00:00 8.8 5 Este 17 Este 0 1017.6 1 93
2017-11-20 20:00:00 9.2 2 Sudeste 15 Este 0 1017.1 0.7 91
2017-11-20 19:00:00 10.6 4 Este 11 Este 0 1016.9 0.7 87
2017-11-20 18:00:00 13.4 0 Calma 11 Noroeste 0 1016.6 0.4 74
2017-11-20 17:00:00 15.8 9 Oeste 13 Noroeste 0 1016.4 -0.6 65
2017-11-20 16:00:00 19.7 12 Oeste 17 Noroeste 0 1016.2 -1.6 47
2017-11-20 15:00:00 20.4 0 Calma 9 Este 0 1016.2 -2.4 47
2017-11-20 14:00:00 18.9 0 Calma 13 Este 0 1017 -2.2 42
2017-11-20 13:00:00 16.1 5 Sudeste 15 Sudeste 0 1017.8 -1.5 53
2017-11-20 12:00:00 13.5 10 Sudeste 21 Sudeste 0 1018.6 -0.6 62
2017-11-20 11:00:00 9.9 13 Sudeste 18 Sudeste 0 1019.2 -0.1 73
2017-11-20 10:00:00 6.8 4 Este 17 Este 0 1019.3 0 83
2017-11-20 09:00:00 4.3 4 Este 17 Este 0 1019.2 0.1 94
2017-11-20 08:00:00 3.1 9 Este 18 Este 0 1019.3 0 97
2017-11-20 07:00:00 3.3 5 Este 13 Este 0 1019.3 -0.5 97
2017-11-20 06:00:00 3.2 4 Sudeste 11 Sudeste 0 1019.1 -1.3 99
2017-11-20 05:00:00 3.2 5 Este 15 Sudeste 0 1019.3 -1.1 99
2017-11-20 04:00:00 3.3 5 Este 15 Este 0 1019.8 -1.2 99
2017-11-20 03:00:00 4.2 3 Este 11 Sudeste 0 1020.4 -0.9 99
2017-11-20 02:00:00 4.1 5 Este 11 Sudeste 0 1020.4 -0.9 99
2017-11-20 01:00:00 4.5 5 Este 13 Este 0 1021 -0.3 98
2017-11-20 00:00:00 5.2 2 Este 11 Este 0 1021.3 0.1 98
2017-11-19 23:00:00 5.2 4 Este 15 Este 0 1021.3 0.7 97
2017-11-19 22:00:00 6.1 8 Este 22 Este 0 1021.3 0.9 96
2017-11-19 21:00:00 6.5 9 Este 18 Este 0 1021.2 0.9 95
2017-11-19 20:00:00 7.2 5 Este 15 Este 0 1020.6 0.6 91
2017-11-19 19:00:00 9 3 Este 13 Nordeste 0 1020.4 0.5 85
2017-11-19 18:00:00 11.3 4 Sudeste 8 Este 0 1020.3 0.4 74
2017-11-19 17:00:00 15.1 4 Nordeste 11 Nordeste 0 1020 -0.7 58
2017-11-19 16:00:00 15.8 0 Calma 9 Nordeste 0 1019.9 -1.2 54
2017-11-19 15:00:00 16.1 4 Sur 8 Sudeste 0 1019.9 -2.1 54
2017-11-19 14:00:00 15 0 Calma 8 Sudeste 0 1020.7 -1.3 59
2017-11-19 13:00:00 12.7 0 Calma 11 Este 0 1021.1 -1 74
2017-11-19 12:00:00 9.3 5 Sudeste 11 Sudeste 0 1022 0.5 95
2017-11-19 11:00:00 6.5 4 Sudeste 11 Sudeste 0 1022 0.9 100
2017-11-19 10:00:00 4.7 5 Este 15 Sudeste 0 1022.1 1.4 100
2017-11-19 09:00:00 4.1 7 Sudeste 13 Sudeste 0 1021.5 0.9 100
2017-11-19 08:00:00 4.1 7 Este 13 Este 0 1021.1 0.6 100
2017-11-19 07:00:00 4.5 4 Este 11 Este 0 1020.7 0 100
2017-11-19 06:00:00 4.7 5 Este 8 Este 0 1020.6 -0.1 100
2017-11-19 05:00:00 4.8 2 Sudeste 11 Este 0 1020.5 0.1 100
2017-11-19 04:00:00 4.8 3 Este 5 Este 0 1020.7 0 100
2017-11-19 03:00:00 4.9 2 Sudeste 13 Este 0 1020.7 0 100
2017-11-19 02:00:00 4.7 5 Este 8 Este 0 1020.4 -0.6 100
2017-11-19 01:00:00 4.5 5 Este 8 Este 0 1020.7 -0.3 100
2017-11-19 00:00:00 4.9 6 Este 11 Este 0 1020.7 -0.3 100
2017-11-18 23:00:00 5.6 5 Este 11 Este 0 1021 0.1 99
2017-11-18 22:00:00 6.1 3 Sudeste 13 Este 0 1021 0.5 98
2017-11-18 21:00:00 7.5 0 Calma 11 Este 0 1021 1 97
2017-11-18 20:00:00 8.2 4 Sudeste 8 Nordeste 0 1020.9 1.1 96
2017-11-18 19:00:00 9.9 3 Sudeste 11 Nordeste 0 1020.5 0.9 89
2017-11-18 18:00:00 11.7 0 Calma 13 Nordeste 0 1020 0.2 85
2017-11-18 17:00:00 13.6 8 Nordeste 15 Nordeste 0 1019.8 -0.2 75
2017-11-18 16:00:00 14.7 6 Norte 15 Norte 0 1019.6 -0.7 71
2017-11-18 15:00:00 14.5 11 Norte 24 Norte 0 1019.8 -1.2 74
2017-11-18 14:00:00 14.5 4 Norte 15 Norte 0 1020 -1 77
2017-11-18 13:00:00 14.7 2 Oeste 8 Oeste 0 1020.3 -0.7 80
2017-11-18 12:00:00 12.8 0 Calma 8 Norte 0 1021 0.5 94
2017-11-18 11:00:00 11.1 0 Calma 4 Este 0 1021 0.9 100
2017-11-18 10:00:00 7.9 0 Calma 5 Este 0 1021 0.9 100
2017-11-18 09:00:00 6.3 0 Calma -- -- -- 1020.5 0.6 100
2017-11-18 08:00:00 5.9 0 Calma 5 Este 0 1020.1 0.1 100
2017-11-18 07:00:00 5.6 2 Este 4 Este 0 1020.1 0 100
2017-11-18 06:00:00 6.4 0 Calma 5 Nordeste 0 1019.9 -0.2 100
2017-11-18 05:00:00 6.3 3 Este 8 Este 0 1020 -0.2 100
2017-11-18 04:00:00 6.5 -- -- -- -- 0 1020.1 -0.3 100
2017-11-18 03:00:00 7 3 Este 8 Este 0 1020.1 -0.3 100
2017-11-18 02:00:00 6.6 0 Calma 5 Este 0 1020.2 0 100
2017-11-18 01:00:00 7.2 2 Sudeste 8 Este 0 1020.4 0.5 100
2017-11-18 00:00:00 6.9 4 Este -- -- 0 1020.4 0.5 99
2017-11-17 23:00:00 8 4 Este 11 Nordeste 0 1020.2 0.2 99
2017-11-17 22:00:00 8.3 5 Este 9 Este 0 1019.9 0.3 98
2017-11-17 21:00:00 9.6 0 Calma 13 Este 0 1019.9 0.7 97
2017-11-17 20:00:00 10.2 3 Sudeste 5 Sudeste 0 1020 1.2 96
2017-11-17 19:00:00 11.3 0 Calma -- -- 0 1019.6 1 90
2017-11-17 18:00:00 12.9 0 Calma 13 Noroeste 0 1019.2 0.5 85
2017-11-17 17:00:00 14.7 8 Noroeste 15 Norte 0 1018.8 -0.1 79
2017-11-17 16:00:00 16.1 7 Noroeste 22 Norte 0 1018.6 -0.9 72
2017-11-17 15:00:00 16.4 6 Noroeste 22 Noroeste 0 1018.7 -1.3 69
2017-11-17 14:00:00 16.5 3 Oeste 11 Oeste 0 1018.9 -1.4 67
2017-11-17 13:00:00 15.3 3 Oeste 9 Norte 0 1019.5 -0.9 72
2017-11-17 12:00:00 13.2 0 Calma 11 Este 0 1020 -0.4 77
2017-11-17 11:00:00 11 4 Sudeste 15 Este 0 1020.3 0.2 83
2017-11-17 10:00:00 7.6 6 Este 15 Este 0 1020.4 0.8 96
2017-11-17 09:00:00 5.3 5 Este 17 Este 0 1020.4 1 99
2017-11-17 08:00:00 4.7 7 Este 15 Este 0 1020.1 0.7 99
2017-11-17 07:00:00 3.8 3 Este 11 Este 0 1019.6 0.4 100
2017-11-17 06:00:00 4 6 Este 11 Este 0 1019.4 -0.1 99
2017-11-17 05:00:00 4.4 7 Este 13 Este 0 1019.4 -0.1 99
2017-11-17 04:00:00 4.7 8 Este 13 Este 0 1019.2 -0.5 99
2017-11-17 03:00:00 5.2 4 Este 13 Este 0 1019.5 -0.4 99
2017-11-17 02:00:00 5.5 4 Este 11 Este 0 1019.5 0 99
2017-11-17 01:00:00 5.6 6 Este 15 Este 0 1019.7 0.6 98
2017-11-17 00:00:00 5.9 3 Sudeste 8 Este 0 1019.9 1 97
2017-11-16 23:00:00 6.7 4 Este 15 Este 0 1019.5 0.7 97
2017-11-16 22:00:00 7.5 4 Este 11 Este 0 1019.1 0.4 96
2017-11-16 21:00:00 7.8 5 Este 9 Este 0 1018.9 0.8 95
2017-11-16 20:00:00 8.8 4 Este 11 Este 0 1018.8 1.2 91
2017-11-16 19:00:00 10.6 0 Calma 5 Este 0 1018.7 1.3 86
2017-11-16 18:00:00 12.7 0 Calma 8 Noroeste 0 1018.1 0.8 76
2017-11-16 17:00:00 15 5 Oeste 11 Noroeste 0 1017.6 0.2 67
2017-11-16 16:00:00 16.6 6 Noroeste 15 Noroeste 0 1017.4 -0.4 52
2017-11-16 15:00:00 17.7 3 Oeste 8 Oeste 0 1017.3 -1.1 49
2017-11-16 14:00:00 17.2 0 Calma 5 Sudeste 0 1017.4 -1 47
2017-11-16 13:00:00 14.8 0 Calma 5 Nordeste 0 1017.8 -0.4 56
2017-11-16 12:00:00 12.4 2 Este 8 Este 0 1018.4 0.8 62
2017-11-16 11:00:00 9.6 3 Este 13 Este 0 1018.4 1.4 76
2017-11-16 10:00:00 6.6 5 Este 11 Este 0 1018.2 1.9 88
2017-11-16 09:00:00 3.9 6 Este 17 Este 0 1017.6 1.6 98
2017-11-16 08:00:00 2.9 4 Este 13 Este 0 1017 1.3 98
2017-11-16 07:00:00 2.9 9 Este 13 Este 0 1016.3 0.3 99
2017-11-16 06:00:00 3.3 2 Este 13 Este 0 1016 -0.4 99
2017-11-16 05:00:00 3 7 Este 13 Este 0 1015.7 -0.8 99
2017-11-16 04:00:00 3.2 3 Este 11 Este 0 1016 -0.9 99
2017-11-16 03:00:00 3.4 5 Este 8 Este 0 1016.4 -0.8 99
2017-11-16 02:00:00 3.7 3 Este 8 Este 0 1016.5 -0.6 99
2017-11-16 01:00:00 3.8 6 Este 13 Este 0 1016.9 -0.2 99
2017-11-16 00:00:00 4.2 7 Este 11 Este 0 1017.2 0.2 98
2017-11-15 23:00:00 5 5 Este 15 Este 0 1017.1 0.2 97
2017-11-15 22:00:00 5.1 4 Sudeste 11 Este 0 1017.1 0.6 96
2017-11-15 21:00:00 5.8 2 Este 13 Este 0 1017 1.4 94
2017-11-15 20:00:00 6.9 5 Este 15 Este 0 1016.9 1.4 90
2017-11-15 19:00:00 8.6 0 Calma 5 Este 0 1016.5 0.9 84
2017-11-15 18:00:00 10.7 0 Calma 5 Sudeste 0 1015.6 -0.3 73
2017-11-15 17:00:00 15.1 0 Calma 5 Sur 0 1015.5 -0.9 53
2017-11-15 16:00:00 15.5 0 Calma 8 Sur 0 1015.6 -1.8 48
2017-11-15 15:00:00 14.7 0 Calma 8 Sudeste 0 1015.9 -2.4 52
2017-11-15 14:00:00 13.7 2 Sudeste 8 Sur 0 1016.4 -2.3 55
2017-11-15 13:00:00 11.4 0 Calma 5 Sur 0 1017.4 -1.6 63
2017-11-15 12:00:00 9.6 3 Nordeste 13 Este 0 1018.3 -0.6 72
2017-11-15 11:00:00 6.9 8 Este 15 Este 0 1018.7 -0.4 84
2017-11-15 10:00:00 4.5 5 Este 11 Sudeste 0 1019 -0.1 98
2017-11-15 09:00:00 1.9 8 Este 15 Este 0 1018.9 -0.1 100
2017-11-15 08:00:00 1.6 8 Este 17 Este 0 1019.1 0 100
2017-11-15 07:00:00 1.7 6 Este 13 Este 0 1019.1 -0.5 100
2017-11-15 06:00:00 1.9 5 Este 13 Este 0 1019 -1 100
2017-11-15 05:00:00 2.3 8 Este 13 Sudeste 0 1019.1 -1 100
2017-11-15 04:00:00 2.8 5 Este 13 Este 0 1019.6 -1.1 99
2017-11-15 03:00:00 3.1 3 Este 15 Este 0 1020 -1 99
2017-11-15 02:00:00 3.3 3 Sudeste 11 Este 0 1020.1 -1.3 98
2017-11-15 01:00:00 3.4 6 Este 8 Este 0 1020.7 -0.8 97
2017-11-15 00:00:00 3.7 6 Este 13 Este 0 1021 -0.6 97
2017-11-14 23:00:00 4.2 6 Este 11 Este 0 1021.4 -0.3 95
2017-11-14 22:00:00 4.7 4 Este 8 Este 0 1021.5 0 92
2017-11-14 21:00:00 5.5 4 Este 11 Este 0 1021.6 0.3 90
2017-11-14 20:00:00 5.9 3 Este 5 Este 0 1021.7 0.5 86
2017-11-14 19:00:00 7.6 3 Sudeste 11 Este 0 1021.5 0.4 77
2017-11-14 18:00:00 9.4 5 Este 28 Nordeste 0 1021.3 0 65
2017-11-14 17:00:00 11.1 13 Este 22 Este 0 1021.2 -0.7 58
2017-11-14 16:00:00 11.9 12 Este 30 Nordeste 0 1021.1 -1.4 53
2017-11-14 15:00:00 12.2 10 Este 26 Nordeste 0 1021.3 -1.9 52
2017-11-14 14:00:00 12.2 17 Nordeste 32 Nordeste 0 1021.9 -1.5 51
2017-11-14 13:00:00 12 9 Nordeste 18 Este 0 1022.5 -0.9 60
2017-11-14 12:00:00 11.7 4 Sudeste 17 Este 0 1023.2 0 64
2017-11-14 11:00:00 11.1 5 Sudeste 11 Sudeste 0 1023.4 0.7 67
2017-11-14 10:00:00 8.6 3 Este 11 Este 0 1023.4 1.2 86
2017-11-14 09:00:00 6 0 Calma 5 Este 0 1023.2 1.2 96
2017-11-14 08:00:00 5.9 0 Calma 11 Este 0 1022.7 0.6 97
2017-11-14 07:00:00 5.6 5 Sudeste 11 Sudeste 0 1022.2 0 98
2017-11-14 06:00:00 5.4 4 Sudeste 5 Sudeste 0 1022 -0.5 96
2017-11-14 05:00:00 5.6 0 Calma 4 Sur 0 1022.1 -0.2 95
2017-11-14 04:00:00 5.6 3 Este 8 Este 0 1022.2 -0.5 93
2017-11-14 03:00:00 5.5 4 Este 17 Este 0 1022.5 -0.5 95
2017-11-14 02:00:00 5.3 2 Oeste 5 Noroeste 0 1022.3 -0.9 91
2017-11-14 01:00:00 5.8 0 Calma 4 Sudeste 0 1022.7 -0.6 87
2017-11-14 00:00:00 6.9 0 Calma 13 Norte 0 1023 0 83
2017-11-13 23:00:00 9.3 7 Norte 17 Norte 0 1023.2 0.5 64
2017-11-13 22:00:00 10.1 7 Norte 18 Nordeste 0 1023.3 0.8 61
2017-11-13 21:00:00 10.2 7 Norte 22 Norte 0 1023 0.9 64
2017-11-13 20:00:00 10.3 10 Norte 24 Nordeste 0 1022.7 0.8 64
2017-11-13 19:00:00 10.8 8 Norte 18 Norte 0 1022.5 0.8 61
2017-11-13 18:00:00 10.9 4 Norte 17 Norte 0 1022.1 0.6 63
2017-11-13 17:00:00 11.6 10 Norte 28 Norte 0 1021.9 0.3 56
2017-11-13 16:00:00 12.1 16 Nordeste 37 Nordeste 0 1021.7 0 51
2017-11-13 15:00:00 13.1 21 Norte 37 Norte 0 1021.5 -0.7 52
2017-11-13 14:00:00 13 19 Nordeste 45 Nordeste 0 1021.6 -0.2 51
2017-11-13 13:00:00 12.4 26 Nordeste 39 Nordeste 0 1021.7 0.2 56
2017-11-13 12:00:00 12.1 13 Nordeste 33 Nordeste 0 1022.2 1.2 61
2017-11-13 11:00:00 12.2 23 Nordeste 37 Nordeste 0 1021.8 1.3 62
2017-11-13 10:00:00 11.4 21 Nordeste 35 Nordeste 0 1021.5 1.5 67
2017-11-13 09:00:00 10.1 4 Nordeste 32 Norte 0.9 1021 1.6 81
2017-11-13 08:00:00 10.3 15 Norte 33 Norte 0.7 1020.5 1.4 79
2017-11-13 07:00:00 11.2 17 Norte 41 Norte 0 1020 1 71
2017-11-13 06:00:00 11 15 Nordeste 33 Norte 0 1019.4 0.4 71
2017-11-13 05:00:00 12 22 Norte 35 Norte 0 1019.1 0 68
2017-11-13 04:00:00 11.6 13 Norte 41 Norte 0 1019 -0.4 75
2017-11-13 03:00:00 12.8 19 Norte 32 Norte 0 1019 0 66
2017-11-13 02:00:00 12.6 9 Norte 32 Norte 0 1019.1 0.6 67
2017-11-13 01:00:00 13.1 15 Norte 39 Norte 0 1019.4 1.7 71
2017-11-13 00:00:00 13.1 21 Norte 42 Norte 0 1019 1.7 71
2017-11-12 23:00:00 13.3 22 Norte 45 Norte 0.1 1018.5 1.3 85
2017-11-12 22:00:00 14.6 22 Noroeste 41 Noroeste 1.1 1017.7 0.7 91
2017-11-12 21:00:00 14.5 20 Noroeste 50 Noroeste 1.2 1017.3 0.7 95
2017-11-12 20:00:00 14.5 17 Oeste 39 Noroeste 0.2 1017.2 0.6 94
2017-11-12 19:00:00 14.8 27 Noroeste 46 Noroeste 0.1 1017 0.3 90
2017-11-12 18:00:00 14.7 27 Noroeste 48 Noroeste 0.2 1016.6 0 94
2017-11-12 17:00:00 14.3 22 Noroeste 41 Oeste 0.5 1016.6 -0.7 96
2017-11-12 16:00:00 15.1 27 Noroeste 42 Noroeste 0 1016.7 -0.9 83
2017-11-12 15:00:00 17 22 Oeste 41 Noroeste 0 1016.6 -1.7 67
2017-11-12 14:00:00 16.5 22 Noroeste 39 Noroeste 0 1017.3 -1 70
2017-11-12 13:00:00 16 14 Noroeste 39 Noroeste 0 1017.6 -1.6 71
2017-11-12 12:00:00 15.6 14 Noroeste 24 Noroeste 0 1018.3 -1.2 75
2017-11-12 11:00:00 14.9 9 Oeste 17 Noroeste 0 1018.3 -1.1 78
2017-11-12 10:00:00 12.7 0 Calma 8 Este 0 1019.2 0 97
2017-11-12 09:00:00 12.1 4 Sudeste 11 Sudeste 0 1019.5 0 98
2017-11-12 08:00:00 11.9 3 Sudeste 8 Este 0 1019.4 -0.4 98
2017-11-12 07:00:00 11.8 5 Este 11 Sudeste 0 1019.2 -0.9 99
2017-11-12 06:00:00 11.9 3 Este 8 Sudeste 0 1019.5 -1.3 99
2017-11-12 05:00:00 12 4 Sudeste 13 Sudeste 0 1019.8 -1.5 99
2017-11-12 04:00:00 12 5 Sudeste 13 Sudeste 0 1020.1 -1.6 98
2017-11-12 03:00:00 12.2 5 Este 5 Este 0 1020.8 -1.1 98
2017-11-12 02:00:00 12.2 2 Sur 8 Nordeste 0 1021.3 -1.2 97
2017-11-12 01:00:00 12 5 Sudeste 8 Sudeste 0 1021.7 -1.2 98
2017-11-12 00:00:00 12 6 Este 8 Este 0 1021.9 -1.1 97
2017-11-11 23:00:00 12.2 3 Este 13 Este 0 1022.5 -0.6 96
2017-11-11 22:00:00 12.3 5 Este 11 Este 0 1022.9 -0.5 95
2017-11-11 21:00:00 12.6 2 Este 11 Sudeste 0 1023 -0.4 92
2017-11-11 20:00:00 13.8 0 Calma 17 Oeste 0 1023.1 -0.6 78
2017-11-11 19:00:00 14.3 13 Noroeste 32 Noroeste 0 1023.4 -0.5 76
2017-11-11 18:00:00 14.4 6 Noroeste 18 Noroeste 0 1023.4 -0.5 76
2017-11-11 17:00:00 14.9 14 Noroeste 30 Oeste 0 1023.7 -0.9 72
2017-11-11 16:00:00 15.7 18 Noroeste 35 Noroeste 0 1023.9 -1.2 69
2017-11-11 15:00:00 15.1 19 Noroeste 32 Noroeste 0 1023.9 -1.8 75
2017-11-11 14:00:00 13.7 9 Noroeste 39 Noroeste 0 1024.6 -1.1 91
2017-11-11 13:00:00 14.8 16 Noroeste 35 Noroeste 0 1025.1 -0.7 79
2017-11-11 12:00:00 14.6 9 Oeste 17 Noroeste 0 1025.7 -0.1 78
2017-11-11 11:00:00 14.3 9 Oeste 17 Oeste 0 1025.7 -0.1 82
2017-11-11 10:00:00 12.9 4 Oeste 15 Oeste 0.3 1025.8 0.2 95
2017-11-11 09:00:00 12.5 0 Calma 8 Sudoeste 0.2 1025.8 0.2 96
2017-11-11 08:00:00 12.8 3 Noroeste 8 Oeste 0 1025.8 0 91
2017-11-11 07:00:00 12.9 2 Oeste 15 Oeste 0 1025.6 -0.5 91
2017-11-11 06:00:00 13.2 7 Oeste 17 Oeste 0 1025.6 -0.8 89
2017-11-11 05:00:00 12.9 5 Oeste 17 Oeste 0 1025.8 -0.8 93
2017-11-11 04:00:00 12.7 3 Noroeste 15 Oeste 0 1026.1 -1 95
2017-11-11 03:00:00 12.9 12 Oeste 22 Oeste 0 1026.4 -1.1 94
2017-11-11 02:00:00 12.7 2 Sur 8 Nordeste 0.3 1026.6 -1 97
2017-11-11 01:00:00 13.1 2 Oeste 33 Noroeste 0 1027.1 -0.7 92
2017-11-11 00:00:00 13.9 17 Noroeste 30 Noroeste 0 1027.5 -0.2 86
2017-11-10 23:00:00 12.7 3 Oeste 50 Noroeste 0.7 1027.6 0 95
2017-11-10 22:00:00 13.3 12 Noroeste 32 Noroeste 0.5 1027.8 0.7 92
2017-11-10 21:00:00 13.8 15 Noroeste 28 Norte 0.1 1027.7 0.9 89
2017-11-10 20:00:00 13.4 10 Noroeste 33 Noroeste 0.4 1027.6 1.2 93
2017-11-10 19:00:00 13.9 9 Noroeste 22 Norte 0.2 1027.1 1.1 91
2017-11-10 18:00:00 14 15 Noroeste 26 Noroeste 1.1 1026.8 0.4 92
2017-11-10 17:00:00 14.5 14 Noroeste 26 Norte 0.5 1026.4 0.3 88
2017-11-10 16:00:00 14.4 2 Noroeste 42 Noroeste 0.2 1026 -0.2 95
2017-11-10 15:00:00 14.7 24 Noroeste 41 Norte 0.6 1026.4 -0.4 92
2017-11-10 14:00:00 15 11 Norte 32 Noroeste 0.2 1026.1 -0.5 90
2017-11-10 13:00:00 15.1 14 Noroeste 26 Noroeste 0 1026.2 -0.2 88
2017-11-10 12:00:00 13.9 14 Norte 32 Norte 0.5 1026.8 0.7 100
2017-11-10 11:00:00 12 2 Este 5 Este 0.2 1026.6 1.1 100
2017-11-10 10:00:00 10.2 2 Sur 8 Sudeste 0.8 1026.4 1.3 100
2017-11-10 09:00:00 9.7 0 Calma 8 Este 0 1026.1 0.7 100
2017-11-10 08:00:00 9.2 5 Este 13 Este 0 1025.5 0.4 100
2017-11-10 07:00:00 9.2 6 Este 13 Este 0.1 1025.1 -0.3 100
2017-11-10 06:00:00 9.2 3 Sudeste 15 Este 0 1025.4 -0.8 100
2017-11-10 05:00:00 9.1 9 Este 15 Sudeste 0.7 1025.1 -0.8 100
2017-11-10 04:00:00 8.9 3 Sudeste 8 Este 1.3 1025.4 -0.9 100
2017-11-10 03:00:00 8.7 5 Este 8 Este 0.7 1026.2 -0.4 100
2017-11-10 02:00:00 8.5 4 Este 11 Sudeste 0 1025.9 -0.8 99
2017-11-10 01:00:00 8.4 3 Este 13 Este 0 1026.3 -0.2 97
2017-11-10 00:00:00 8.5 2 Este 5 Nordeste 0.1 1026.6 0 95
2017-11-09 23:00:00 8.5 4 Este 15 Este 0 1026.7 0.4 90
2017-11-09 22:00:00 8.1 3 Sudeste 13 Este 0 1026.5 0.3 90
2017-11-09 21:00:00 7.6 6 Este 11 Sudeste 0 1026.6 1.2 91
2017-11-09 20:00:00 7.8 4 Este 8 Sudeste 0 1026.3 1.3 87
2017-11-09 19:00:00 10.9 3 Norte 15 Norte 0 1026.2 1.2 65
2017-11-09 18:00:00 11.5 6 Noroeste 17 Norte 0 1025.4 0.6 62
2017-11-09 17:00:00 12.3 7 Norte 24 Noroeste 0 1025 0.2 60
2017-11-09 16:00:00 13 12 Norte 32 Norte 0 1025 0 58
2017-11-09 15:00:00 12.9 13 Noroeste 33 Norte 0 1024.8 -0.5 58
2017-11-09 14:00:00 13.8 15 Norte 32 Noroeste 0 1024.8 -0.5 58
2017-11-09 13:00:00 13.3 17 Norte 33 Norte 0 1025 -0.5 58
2017-11-09 12:00:00 13.1 13 Norte 32 Norte 0 1025.3 0.3 64
2017-11-09 11:00:00 12.3 5 Oeste 13 Norte 0 1025.3 1.1 78
2017-11-09 10:00:00 9.5 6 Este 13 Este 0 1025.5 1.7 99
2017-11-09 09:00:00 7.9 4 Este 11 Sudeste 0 1025 1.3 100
2017-11-09 08:00:00 7 8 Este 15 Este 0 1024.2 0.9 100
2017-11-09 07:00:00 7.2 6 Este 11 Sudeste 0.1 1023.8 0.4 100
2017-11-09 06:00:00 7.2 3 Sudeste 8 Este 0.1 1023.7 0.4 100
2017-11-09 05:00:00 7.5 2 Oeste 13 Este 2.6 1023.3 -0.1 100
2017-11-09 04:00:00 7.1 5 Este 15 Sudeste 0.7 1023.4 -0.2 100
2017-11-09 03:00:00 6.5 8 Sudeste 15 Este 0 1023.3 -0.2 100
2017-11-09 02:00:00 6.2 0 Calma 15 Este 0.2 1023.4 -0.4 100
2017-11-09 01:00:00 6.2 10 Este 17 Este 0.1 1023.6 0 100
2017-11-09 00:00:00 6.5 4 Este 21 Este 0.7 1023.5 0.2 100
2017-11-08 23:00:00 6.1 14 Nordeste 18 Nordeste 0 1023.8 0.8 100
2017-11-08 22:00:00 6.2 4 Este 11 Este 0 1023.6 1.1 99
2017-11-08 21:00:00 6.4 5 Este 17 Sudeste 0 1023.3 1.3 98
2017-11-08 20:00:00 7.7 4 Oeste 17 Noroeste 0.1 1023 1.4 97
2017-11-08 19:00:00 7.7 2 Nordeste 13 Oeste 0.4 1022.5 1.4 95
2017-11-08 18:00:00 7.7 2 Sur 17 Sudoeste 2.2 1022 0.8 95
2017-11-08 17:00:00 8.1 4 Este 22 Este 2.9 1021.6 0.3 92
2017-11-08 16:00:00 9.1 20 Nordeste 33 Nordeste 1.9 1021.1 -0.3 88
2017-11-08 15:00:00 9.6 9 Oeste 17 Oeste 0.6 1021.2 -0.3 90
2017-11-08 14:00:00 8.8 15 Norte 54 Noroeste 5.8 1021.3 -0.4 92
2017-11-08 13:00:00 8.7 8 Oeste 17 Oeste 3.2 1021.4 0.2 95
2017-11-08 12:00:00 8.6 9 Oeste 32 Norte 8.4 1021.5 1.2 96
2017-11-08 11:00:00 9.1 17 Nordeste 39 Nordeste 1.7 1021.7 1.3 90
2017-11-08 10:00:00 9.5 0 Calma 18 Oeste 1.8 1021.2 1 90
2017-11-08 09:00:00 9.6 0 Calma 17 Sudoeste 0 1020.3 -0.1 89
2017-11-08 08:00:00 9.5 5 Oeste 45 Norte 1.5 1020.4 0.7 86
2017-11-08 07:00:00 9.4 6 Oeste 30 Norte 3.4 1020.2 0.8 88
2017-11-08 06:00:00 9.9 23 Noroeste 42 Noroeste 2.4 1020.4 1 87
2017-11-08 05:00:00 10.5 3 Norte 15 Oeste 0.2 1019.7 0.4 84
2017-11-08 04:00:00 10.8 3 Oeste 15 Oeste 0.6 1019.4 0.2 88
2017-11-08 03:00:00 10.7 12 Oeste 26 Oeste 1.9 1019.4 0.8 91
2017-11-08 02:00:00 10.7 18 Noroeste 35 Oeste 2.3 1019.3 1.4 91
2017-11-08 01:00:00 10.7 11 Noroeste 52 Noroeste 1.1 1019.2 2.2 85
2017-11-08 00:00:00 13.1 13 Noroeste 42 Noroeste 0 1018.6 1.9 68
2017-11-07 23:00:00 13.6 22 Noroeste 42 Norte 0.6 1017.9 0.9 76
2017-11-07 22:00:00 10.8 5 Oeste 11 Oeste 4.8 1017 -0.3 98
2017-11-07 21:00:00 10.4 4 Este 15 Este 0.2 1016.7 -0.3 88
2017-11-07 20:00:00 10.8 5 Sudeste 9 Este 0 1017 0.3 82
2017-11-07 19:00:00 12 4 Noroeste 13 Noroeste 0 1017.3 0.9 73
2017-11-07 18:00:00 12.4 6 Este 11 Este 0 1017 0.8 62
2017-11-07 17:00:00 13.2 5 Este 18 Norte 0 1016.7 0.2 54
2017-11-07 16:00:00 15 9 Norte 17 Norte 0 1016.4 -0.5 49
2017-11-07 15:00:00 15.6 0 Calma 11 Este 0 1016.2 -1.4 48
2017-11-07 14:00:00 14.6 6 Este 26 Este 0 1016.5 -2.1 49
2017-11-07 13:00:00 13.9 5 Este 21 Este 0 1016.9 -2.3 59
2017-11-07 12:00:00 12.2 14 Sudeste 22 Sudeste -- 1017.6 -1.6 69
2017-11-07 11:00:00 9.7 14 Sudeste 22 Sudeste -- 1018.6 -0.2 80
2017-11-07 10:00:00 7.4 9 Sudeste 21 Sudeste -- 1019.2 0.5 89
2017-11-07 09:00:00 5.3 13 Sudeste 18 Sudeste 0 1019.2 0.5 98
2017-11-07 08:00:00 4.5 7 Sudeste 21 Sudeste 0 1018.8 0 100
2017-11-07 07:00:00 4.8 7 Sudeste 15 Sudeste 0 1018.7 -0.4 100
2017-11-07 06:00:00 6.2 6 Sudeste 15 Este 0 1018.7 -0.8 100
2017-11-07 05:00:00 6.4 6 Sudeste 13 Este 0 1018.8 -1 100
2017-11-07 04:00:00 6.2 6 Sudeste 11 Sudeste 0 1019.1 -1.1 100
2017-11-07 03:00:00 7.6 8 Este 13 Este 0 1019.5 -1.2 100
2017-11-07 02:00:00 8.9 -- -- -- -- 0 1019.8 -1.4 100
2017-11-07 01:00:00 9.4 0 Calma 4 Este 0 1020.2 -1 100
2017-11-07 00:00:00 9.7 3 Oeste 8 Noroeste 0.1 1020.7 -0.5 99
2017-11-06 23:00:00 9.9 2 Sur 8 Este 0.7 1021.2 -0.1 98
2017-11-06 22:00:00 9.6 8 Este 13 Este 0.1 1021.2 -0.1 96
2017-11-06 21:00:00 9.8 4 Sur 18 Este 0.6 1021.2 -0.2 93
2017-11-06 20:00:00 9.5 0 Calma 5 Noroeste 0 1021.3 0 88
2017-11-06 19:00:00 10.6 0 Calma 17 Norte 0 1021.3 0.1 81
2017-11-06 18:00:00 12.2 5 Norte 18 Nordeste 0 1021.4 0.1 73
2017-11-06 17:00:00 12 8 Norte 26 Norte 0 1021.3 -0.3 63
2017-11-06 16:00:00 13.7 11 Norte 26 Norte 0 1021.2 -1.3 62
2017-11-06 15:00:00 14.1 13 Noroeste 39 Norte 0.3 1021.3 -2.1 70
2017-11-06 14:00:00 14 9 Norte 26 Nordeste 0.2 1021.6 -1.3 69
2017-11-06 13:00:00 12.1 21 Nordeste 39 Norte 0.5 1022.5 -0.6 72
2017-11-06 12:00:00 12.3 23 Nordeste 33 Nordeste 1.5 1023.4 0.3 79
2017-11-06 11:00:00 13.9 11 Norte 21 Nordeste 0 1022.9 0 67
2017-11-06 10:00:00 11.4 7 Norte 28 Noroeste 0.4 1023.1 0.5 81
2017-11-06 09:00:00 10.7 4 Oeste 18 Noroeste 0.5 1023.1 0.6 88
2017-11-06 08:00:00 8.5 2 Noroeste 15 Nordeste 0.2 1022.9 0.3 98
2017-11-06 07:00:00 8.4 4 Este 17 Norte 0.1 1022.6 0.4 96
2017-11-06 06:00:00 10.2 6 Norte 22 Norte 0 1022.5 0 82
2017-11-06 05:00:00 9 5 Noroeste 11 Norte 0 1022.6 0.1 93
2017-11-06 04:00:00 10.4 8 Nordeste 22 Nordeste 0 1022.2 -0.1 83
2017-11-06 03:00:00 11.2 5 Nordeste 26 Norte 0 1022.5 0.2 78
2017-11-06 02:00:00 12.2 13 Norte 26 Norte 0 1022.5 0.2 73
2017-11-06 01:00:00 11.1 10 Norte 26 Norte 0 1022.3 0.3 87
2017-11-06 00:00:00 11.6 12 Norte 35 Norte 0.2 1022.3 1 83
2017-11-05 23:00:00 11.8 14 Norte 35 Norte 0 1022.3 1.2 89
2017-11-05 22:00:00 11 9 Noroeste 46 Norte 2.6 1022 1.5 98
2017-11-05 21:00:00 11.7 12 Norte 24 Noroeste 0 1021.3 0.9 97
2017-11-05 20:00:00 10.7 14 Noroeste 52 Norte 5.5 1021.1 1.2 100
2017-11-05 19:00:00 11.8 4 Oeste 30 Norte 0.2 1020.5 0.6 89
2017-11-05 18:00:00 12.9 24 Noroeste 41 Noroeste 0.6 1020.4 0.4 74
2017-11-05 17:00:00 12.1 15 Noroeste 50 Noroeste 0.6 1019.9 -0.5 83
2017-11-05 16:00:00 12.5 9 Noroeste 26 Noroeste 3.9 1019.9 0 90
2017-11-05 15:00:00 11.8 22 Noroeste 35 Noroeste 1.3 1020 -0.7 90
2017-11-05 14:00:00 11.3 14 Oeste 37 Noroeste 1.1 1020.4 0.3 89
2017-11-05 13:00:00 12.5 0 Calma 18 Noroeste 4.5 1019.9 0.2 94
2017-11-05 12:00:00 12 11 Oeste 26 Noroeste 3.1 1020.7 1.3 90
2017-11-05 11:00:00 12.2 7 Noroeste 30 Oeste 0.6 1020.1 1.7 88
2017-11-05 10:00:00 12.9 4 Oeste 15 Oeste 0 1019.7 1.7 79
2017-11-05 09:00:00 11.1 3 Nordeste 8 Sudoeste 0 1019.4 2 95
2017-11-05 08:00:00 10.2 5 Sur 13 Este 0.5 1018.4 1.4 93
2017-11-05 07:00:00 10.6 3 Oeste 41 Norte 0.4 1018 1.5 87
2017-11-05 06:00:00 12 11 Norte 32 Norte 0 1017.4 1.2 74
2017-11-05 05:00:00 11.8 10 Oeste 21 Noroeste 0.4 1017 1.9 90
2017-11-05 04:00:00 12.1 18 Oeste 39 Norte 0.8 1016.5 2.2 92
2017-11-05 03:00:00 13.5 23 Noroeste 45 Noroeste 0.8 1016.2 2.8 79
2017-11-05 02:00:00 14.4 13 Norte 46 Norte 0 1015.1 2.5 76
2017-11-05 01:00:00 14.2 15 Norte 37 Norte 0.3 1014.3 2.5 86
2017-11-05 00:00:00 14.3 18 Noroeste 46 Norte 1.1 1013.4 2.4 90
2017-11-04 23:00:00 14.3 14 Noroeste 32 Norte 4.2 1012.6 2 96
2017-11-04 22:00:00 13.5 6 Noroeste 11 Noroeste 0.3 1011.8 1.7 99
2017-11-04 21:00:00 13.6 0 Calma 4 Oeste 1.7 1011 1.5 98
2017-11-04 20:00:00 13.9 3 Oeste 8 Oeste 0.6 1010.6 2.3 97
2017-11-04 19:00:00 14.2 3 Oeste 15 Oeste 3.6 1010.1 2.5 99
2017-11-04 18:00:00 14.1 8 Oeste 18 Noroeste 3.3 1009.5 2.3 99
2017-11-04 17:00:00 13.9 5 Oeste 17 Noroeste 4.4 1008.3 1.4 99
2017-11-04 16:00:00 14.6 9 Oeste 21 Noroeste 3.6 1007.6 0.5 96
2017-11-04 15:00:00 16 13 Noroeste 24 Noroeste 0.2 1007.2 -0.5 94
2017-11-04 14:00:00 17.8 13 Noroeste 22 Noroeste 0 1006.9 -0.6 80
2017-11-04 13:00:00 16.7 0 Calma 8 Norte 0 1007.1 -0.2 78
2017-11-04 12:00:00 15.5 5 Este 8 Este 0 1007.7 0.6 81
2017-11-04 11:00:00 14.1 2 Este 8 Este 0 1007.5 1.4 83
2017-11-04 10:00:00 12.5 0 Calma 8 Nordeste 0 1007.3 1.6 89
2017-11-04 09:00:00 10.8 5 Este 11 Este 0 1007.1 1.5 95
2017-11-04 08:00:00 9.4 2 Sudeste -- -- 0 1006.1 0.4 95
2017-11-04 07:00:00 9.8 0 Calma 11 Este 0 1005.7 0.2 93
2017-11-04 06:00:00 9.7 2 Este -- -- 0 1005.6 -0.2 92
2017-11-04 05:00:00 10.5 6 Este 13 Este 0 1005.7 -0.5 91
2017-11-04 04:00:00 10.9 7 Este 11 Este 0 1005.5 -1.1 89
2017-11-04 03:00:00 11 3 Este 11 Este 0 1005.8 -0.9 87
2017-11-04 02:00:00 11.9 5 Este 11 Nordeste 0 1006.2 -0.8 85
2017-11-04 01:00:00 11.3 4 Este 11 Este 0 1006.6 -0.4 88
2017-11-04 00:00:00 12.1 6 Este 13 Este 0 1006.7 -0.3 83
2017-11-03 23:00:00 12.5 6 Este 15 Este 0 1007 0.2 84
2017-11-03 22:00:00 12.6 2 Sudeste 15 Este 0 1007 0.6 85
2017-11-03 21:00:00 13.8 2 Este 15 Este 0 1007 1.3 80
2017-11-03 20:00:00 15.3 4 Sudeste 11 Nordeste 0 1006.8 1.3 75
2017-11-03 19:00:00 17.7 3 Sudeste 15 Sur 0 1006.4 0.7 64
2017-11-03 18:00:00 19.4 6 Sur 17 Oeste 0 1005.7 -0.1 56
2017-11-03 17:00:00 23.1 6 Oeste 22 Sur 0 1005.5 -0.5 40
2017-11-03 16:00:00 23.7 9 Sudoeste 28 Sudoeste 0 1005.7 -0.6 37
2017-11-03 15:00:00 23.4 13 Sudoeste 32 Sudoeste 0 1005.8 -0.9 39
2017-11-03 14:00:00 22.3 19 Sudoeste 35 Sudoeste 0 1006 -1 44
2017-11-03 13:00:00 22.3 20 Sudoeste 39 Oeste 0 1006.3 -0.7 44
2017-11-03 12:00:00 22.2 15 Sur 37 Sur 0 1006.7 -0.7 46
2017-11-03 11:00:00 20.2 12 Sur 33 Sur 0 1007 0.4 57
2017-11-03 10:00:00 17.8 15 Sur 24 Sudeste 0 1007 0.5 70
2017-11-03 09:00:00 16.1 9 Sur 17 Sur 0 1007.4 1 81
2017-11-03 08:00:00 14.7 4 Sudeste 5 Sudeste 0 1006.6 -0.4 89
2017-11-03 07:00:00 15 0 Calma 11 Sudoeste 0 1006.5 -0.9 82
2017-11-03 06:00:00 16.3 2 Norte 15 Este 0 1006.4 -1.9 76
2017-11-03 05:00:00 15.8 10 Este 21 Este 0 1007 -1.8 76
2017-11-03 04:00:00 16 6 Sudeste 21 Este 0 1007.4 -1.9 74
2017-11-03 03:00:00 16.8 14 Este 21 Este 0 1008.3 -1.1 70
2017-11-03 02:00:00 15.9 10 Sudeste 15 Este 0 1008.8 -0.7 74
2017-11-03 01:00:00 17.3 8 Este 21 Sur 0 1009.3 -0.1 69
2017-11-03 00:00:00 18.5 15 Sur 28 Sur 0 1009.4 0 63
2017-11-02 23:00:00 19.9 15 Sur 33 Sur 0 1009.5 -0.1 58
2017-11-02 22:00:00 19.5 17 Sur 26 Sur 0 1009.4 0 60
2017-11-02 21:00:00 19.5 10 Sudeste 24 Sur 0 1009.4 0.2 60
2017-11-02 20:00:00 20.1 13 Sudeste 21 Sur 0 1009.6 0.4 57
2017-11-02 19:00:00 19.5 5 Nordeste 24 Sur 0 1009.4 0.1 62
2017-11-02 18:00:00 21 16 Sur 26 Sur 0 1009.2 -0.2 56
2017-11-02 17:00:00 21.9 17 Sur 32 Sudeste 0 1009.2 -0.7 53
2017-11-02 16:00:00 23.2 23 Sur 39 Sur 0 1009.3 -1.3 47
2017-11-02 15:00:00 24 11 Sur 32 Sur 0 1009.4 -2.2 46
2017-11-02 14:00:00 24 21 Sur 37 Sur 0 1009.9 -1.7 46
2017-11-02 13:00:00 23.4 17 Sur 35 Sur 0 1010.6 -1.1 49
2017-11-02 12:00:00 22 21 Sur 42 Sur 0 1011.6 0.1 51
2017-11-02 11:00:00 20.4 22 Sur 41 Sudeste 0 1011.6 0.4 57
2017-11-02 10:00:00 19.3 17 Sur 35 Sur 0 1011.7 0.8 58
2017-11-02 09:00:00 18 20 Sudeste 42 Sur 0 1011.5 0.7 63
2017-11-02 08:00:00 16.4 15 Sudeste 33 Sudeste 0 1011.2 0 71
2017-11-02 07:00:00 16.1 15 Sudeste 24 Sudeste 0 1010.9 -0.5 73
2017-11-02 06:00:00 15.8 11 Sudeste 21 Este 0 1010.8 -1.2 73
2017-11-02 05:00:00 15.2 13 Este 32 Este 0 1011.2 -1 76
2017-11-02 04:00:00 17.5 18 Sudeste 30 Sudeste 0 1011.4 -1.2 66
2017-11-02 03:00:00 16.7 13 Este 21 Este 0 1012 -0.9 69
2017-11-02 02:00:00 17.1 12 Este 21 Este 0 1012.2 -1.1 67
2017-11-02 01:00:00 17.5 6 Este 26 Sudeste 0 1012.6 -0.6 65
2017-11-02 00:00:00 16.9 15 Sudeste 28 Este 0 1012.9 -0.3 68
2017-11-01 23:00:00 16.3 10 Sudeste 18 Este 0 1013.3 0 70
2017-11-01 22:00:00 16.1 10 Sudeste 18 Sudeste 0 1013.2 0.2 72
2017-11-01 21:00:00 15.5 12 Sudeste 18 Sudeste 0 1013.2 0.5 76
2017-11-01 20:00:00 16 14 Sudeste 18 Sudeste 0 1013.3 0.6 74
2017-11-01 19:00:00 16.8 12 Sudeste 28 Este 0 1013 0.1 71
2017-11-01 18:00:00 19.1 9 Sudeste 22 Este 0 1012.7 -0.2 63
2017-11-01 17:00:00 21.6 12 Este 21 Este 0 1012.7 -0.7 50
2017-11-01 16:00:00 21.8 11 Sudeste 21 Sudeste 0 1012.9 -1 50
2017-11-01 15:00:00 22.4 9 Sudeste 21 Sur 0 1012.9 -1.9 46
2017-11-01 14:00:00 22.3 13 Sur 30 Sur 0 1013.4 -1.7 45
2017-11-01 13:00:00 21.4 9 Sur 26 Sudeste 0 1013.9 -1.4 47
2017-11-01 12:00:00 20.3 9 Sur 35 Sur 0 1014.8 -0.4 49
2017-11-01 11:00:00 19.2 14 Sur 37 Sur 0 1015.1 0.4 51
2017-11-01 10:00:00 17.8 17 Sur 35 Sur 0 1015.3 1.2 54
2017-11-01 09:00:00 16.8 14 Sur 28 Sudoeste 0 1015.2 1.7 55
2017-11-01 08:00:00 15.8 10 Sur 28 Sur 0 1014.7 1.4 57
2017-11-01 07:00:00 14.8 6 Sudoeste 24 Sur 0 1014.1 0.8 59
2017-11-01 06:00:00 16.3 9 Sudoeste 32 Sur 0 1013.5 0.2 53
2017-11-01 05:00:00 16.7 23 Sur 45 Sur 0 1013.3 -0.2 51
2017-11-01 04:00:00 17.1 19 Sur 39 Sur 0 1013.3 -0.3 50
2017-11-01 03:00:00 17 19 Sur 35 Sur 0 1013.3 -0.6 51
2017-11-01 02:00:00 13.6 9 Este 26 Sur 0 1013.5 -0.7 67
2017-11-01 01:00:00 13.5 15 Este 33 Sudeste 0 1013.6 -0.8 67
2017-11-01 00:00:00 12.7 14 Sudeste 26 Sudeste 0 1013.9 -0.4 73
2017-10-31 23:00:00 11.8 19 Sudeste 26 Este 0 1014.2 -0.4 80
2017-10-31 22:00:00 11.6 12 Sudeste 28 Este 0 1014.4 -0.8 82
2017-10-31 21:00:00 11.6 13 Sudeste 22 Sudeste 0 1014.3 -0.6 85
2017-10-31 20:00:00 11 15 Sudeste 21 Sudeste 0 1014.6 -0.3 87
2017-10-31 19:00:00 12.7 12 Este 26 Este 0 1015.2 0.2 82
2017-10-31 18:00:00 14.7 11 Este 24 Este 0 1014.9 -0.9 73
2017-10-31 17:00:00 16.2 10 Este 21 Este 0 1014.9 -1.9 68
2017-10-31 16:00:00 17.9 11 Sudeste 33 Este 0 1015 -3 60
2017-10-31 15:00:00 17.5 12 Sudeste 21 Sudeste 0 1015.8 -3.2 56
2017-10-31 14:00:00 16.5 6 Este 18 Este 0 1016.8 -2.7 55
2017-10-31 13:00:00 15.1 5 Este 17 Este 0 1018 -1.9 60
2017-10-31 12:00:00 14.3 4 Este 11 Este 0 1019 -1 64
2017-10-31 11:00:00 12.3 5 Sudeste 11 Sudeste 0 1019.5 -0.2 83
2017-10-31 10:00:00 9.4 8 Sudeste 17 Sudeste 0 1019.9 0.3 99
2017-10-31 09:00:00 7.8 6 Este 15 Este 0 1020 0.5 100
2017-10-31 08:00:00 7.4 8 Este 17 Este 0 1019.7 0.3 100
2017-10-31 07:00:00 7 8 Sudeste 15 Sudeste 0 1019.6 0.1 99
2017-10-31 06:00:00 8.2 5 Sudeste 11 Sudeste 0 1019.5 -0.4 98
2017-10-31 05:00:00 9 4 Este 8 Este 0 1019.4 -0.6 98
2017-10-31 04:00:00 9.1 4 Este 8 Este 0 1019.5 -0.7 99
2017-10-31 03:00:00 8.9 0 Calma 4 Este 0 1019.9 -0.5 98
2017-10-31 02:00:00 8.3 0 Calma 8 Este 0 1020 -0.5 98
2017-10-31 01:00:00 8.5 5 Este 8 Este 0 1020.2 -0.4 97
2017-10-31 00:00:00 9.5 5 Este 8 Este 0 1020.4 -0.2 94
2017-10-30 23:00:00 10.3 0 Calma 5 Nordeste 0 1020.5 -0.1 89
2017-10-30 22:00:00 10.3 0 Calma 2 Oeste 0 1020.6 0.1 87
2017-10-30 21:00:00 11.3 -- -- -- -- 0 1020.6 0.7 83
2017-10-30 20:00:00 12.2 0 Calma -- -- 0 1020.6 1.1 79
2017-10-30 19:00:00 12.9 5 Norte 13 Norte 0 1020.5 1.3 74
2017-10-30 18:00:00 13.6 8 Norte 21 Norte 0 1019.9 1.2 69
2017-10-30 17:00:00 14.1 11 Norte 22 Norte 0 1019.5 0.9 69
2017-10-30 16:00:00 15 16 Norte 32 Nordeste 0 1019.2 0.5 68
2017-10-30 15:00:00 15.8 12 Nordeste 26 Nordeste 0 1018.7 -0.4 69
2017-10-30 14:00:00 15.8 15 Nordeste 33 Nordeste 0 1018.6 -0.3 75
2017-10-30 13:00:00 15.7 17 Nordeste 28 Este 0 1018.7 -0.2 81
2017-10-30 12:00:00 14.5 25 Nordeste 46 Norte 0.3 1019.1 0.1 93
2017-10-30 11:00:00 15.8 7 Norte 18 Norte 0 1018.9 0.3 96
2017-10-30 10:00:00 15.1 10 Noroeste 22 Noroeste 0.3 1018.9 0.4 99
2017-10-30 09:00:00 14.3 5 Oeste 11 Oeste 0.8 1019 0.5 100
2017-10-30 08:00:00 14.1 0 Calma 5 Sudoeste 0 1018.6 0 99
2017-10-30 07:00:00 14 0 Calma 28 Norte 0.5 1018.5 -0.3 99
2017-10-30 06:00:00 14.1 14 Norte 24 Nordeste 1.6 1018.5 -0.7 99
2017-10-30 05:00:00 14.1 0 Calma 4 Sudoeste 0.9 1018.6 -0.9 100
2017-10-30 04:00:00 14.1 3 Oeste 8 Oeste 0 1018.8 -1.4 100
2017-10-30 03:00:00 13.9 0 Calma 8 Noroeste 0.9 1019.2 -1.3 100
2017-10-30 02:00:00 14.1 0 Calma 8 Oeste 0.9 1019.5 -1.5 100
2017-10-30 01:00:00 14 6 Oeste 11 Oeste 1.5 1020.2 -1.2 100
2017-10-30 00:00:00 14 5 Oeste 13 Oeste 0.7 1020.5 -0.9 99
2017-10-29 23:00:00 14 3 Oeste 13 Norte 0 1021 -0.7 98
2017-10-29 22:00:00 14.3 8 Norte 21 Norte 0.1 1021.4 -0.3 97
2017-10-29 21:00:00 14.1 3 Sur 5 Sur 0 1021.4 -0.2 99
2017-10-29 20:00:00 14.1 2 Sudoeste 5 Sur 1.7 1021.7 0 99
2017-10-29 19:00:00 14 0 Calma 4 Sur 0.6 1021.7 -0.2 98
2017-10-29 18:00:00 14.1 3 Sur 5 Sur 1 1021.6 -0.5 97
2017-10-29 17:00:00 14.6 4 Sudeste 8 Este 0.1 1021.7 -0.9 92
2017-10-29 16:00:00 15.2 0 Calma 4 Sur 0 1021.9 -1.6 83
2017-10-29 15:00:00 15.4 0 Calma 4 Oeste 0 1022.1 -2 77
2017-10-29 14:00:00 15.5 3 Oeste 5 Oeste 0 1022.6 -1.6 79
2017-10-29 13:00:00 15.1 0 Calma 8 Norte 0 1023.5 -0.7 82
2017-10-29 12:00:00 14.4 0 Calma 11 Este 0 1024.1 0 86
2017-10-29 11:00:00 13 4 Sudeste 11 Este 0 1024.2 0.3 92
2017-10-29 10:00:00 11.4 4 Este 13 Este 0 1024.2 0.3 97
2017-10-29 09:00:00 10 6 Sudeste 11 Sudeste 0 1024.1 0.1 99
2017-10-29 08:00:00 9.4 3 Este 11 Este 0 1023.9 0 99
2017-10-29 07:00:00 9.4 6 Este 11 Este 0 1023.9 -0.1 99
2017-10-29 06:00:00 9.6 4 Este 13 Este 0 1024 -0.4 99
2017-10-29 05:00:00 8.9 6 Este 11 Este 0 1023.9 -0.8 100
2017-10-29 04:00:00 8.3 5 Este 11 Este 0 1024 -1.1 99
2017-10-29 03:00:00 8.6 6 Este 11 Este 0 1024.4 -1.1 99
2017-10-29 02:00:00 9.1 5 Este 11 Este 0 1024.7 -1 98
2017-10-29 01:00:00 9.7 5 Este 8 Este 0 1025.5 0 97
2017-10-29 00:00:00 10.1 4 Este -- -- 0 1025.7 0 94
2017-10-28 23:00:00 11.2 2 Sudeste 11 Nordeste 0 1025.6 0.1 91
2017-10-28 22:00:00 12.5 3 Este 11 Este 0 1025.5 0.4 86
2017-10-28 21:00:00 14.4 0 Calma 4 Nordeste 0 1025.7 0.8 80
2017-10-28 20:00:00 15.7 0 Calma 13 Este 0 1025.5 0.7 77
2017-10-28 19:00:00 16.2 3 Este 17 Este 0 1025.1 0.2 72
2017-10-28 18:00:00 17.7 9 Este 24 Nordeste 0 1024.9 -0.5 74
2017-10-28 17:00:00 18.8 10 Nordeste 22 Nordeste 0 1024.8 -1.3 72
2017-10-28 16:00:00 18.4 16 Nordeste 24 Nordeste 0 1024.9 -1.9 72
2017-10-28 15:00:00 19 11 Nordeste 18 Nordeste 0 1025.4 -1.5 71
2017-10-28 14:00:00 18.5 6 Nordeste 24 Nordeste 0 1026.1 -0.9 78
2017-10-28 13:00:00 18 5 Norte 11 Norte 0 1026.8 0 85
2017-10-28 12:00:00 16.9 0 Calma 4 Oeste 0 1026.9 0.2 97
2017-10-28 11:00:00 15.4 0 Calma 8 Este 0 1027 0.3 100
2017-10-28 10:00:00 14 3 Este 8 Este 0 1026.8 0 100
2017-10-28 09:00:00 14 2 Sudeste -- -- 0 1026.7 -0.4 99
2017-10-28 08:00:00 14.7 0 Calma 8 Oeste 0 1026.7 -0.5 99
2017-10-28 07:00:00 15.5 3 Oeste 8 Este 0.2 1026.8 -0.6 96
2017-10-28 06:00:00 16.1 4 Este 5 Este 0 1027.1 -0.7 91
2017-10-28 05:00:00 16.4 0 Calma 5 Norte 0 1027.2 -0.9 87
2017-10-28 04:00:00 16.7 0 Calma 8 Norte 0 1027.4 -1 85
2017-10-28 03:00:00 16.8 4 Oeste 11 Oeste 0 1027.8 -0.8 83
2017-10-28 02:00:00 16.7 4 Oeste 8 Oeste 0 1028.1 -0.4 84
2017-10-28 01:00:00 16.9 0 Calma 8 Noroeste 0 1028.4 0 82
2017-10-28 00:00:00 17.1 3 Noroeste 21 Norte 0 1028.6 0.3 82
2017-10-27 23:00:00 17.1 4 Norte 15 Norte 0 1028.5 0.4 85
2017-10-27 22:00:00 17.4 6 Norte 18 Nordeste 0 1028.4 0.3 85
2017-10-27 21:00:00 17.6 7 Norte 15 Norte 0 1028.3 0.3 88
2017-10-27 20:00:00 17.9 9 Noroeste 17 Noroeste 0 1028.1 0.1 89
2017-10-27 19:00:00 18.2 8 Noroeste 18 Norte 0 1028.1 0.3 85
2017-10-27 18:00:00 18.7 12 Noroeste 21 Norte 0 1028 -0.1 84
2017-10-27 17:00:00 19.3 14 Noroeste 21 Noroeste 0 1028 -0.2 79
2017-10-27 16:00:00 19.6 10 Noroeste 21 Norte 0 1027.8 -0.6 79
2017-10-27 15:00:00 19.9 8 Norte 17 Norte 0 1028.1 -0.5 76
2017-10-27 14:00:00 20.1 0 Calma 5 Oeste 0 1028.2 -0.3 73
2017-10-27 13:00:00 17.8 3 Nordeste 13 Nordeste 0 1028.4 0.2 79
2017-10-27 12:00:00 16 4 Sudeste 13 Este 0 1028.6 0.8 85
2017-10-27 11:00:00 13.9 6 Este 11 Sudeste 0 1028.5 1 94
2017-10-27 10:00:00 12.3 7 Este 28 Norte 0 1028.2 1 98
2017-10-27 09:00:00 11.2 5 Este 11 Este 0 1027.8 1.2 99
2017-10-27 08:00:00 10.2 6 Este 15 Este 0 1027.5 1.3 98
2017-10-27 07:00:00 10.9 4 Este 13 Este 0 1027.2 0.8 98
2017-10-27 06:00:00 10.9 5 Este -- -- 0 1026.6 0.2 98
2017-10-27 05:00:00 11.1 5 Este 8 Este 0 1026.2 -0.4 98
2017-10-27 04:00:00 11.4 5 Este 11 Este 0 1026.4 0 98
2017-10-27 03:00:00 11.6 7 Este 11 Este 0 1026.4 0.3 98
2017-10-27 02:00:00 11.9 8 Este 11 Este 0 1026.6 1.1 97
2017-10-27 01:00:00 12.5 2 Sudeste 4 Sudeste 0 1026.4 1.5 97
2017-10-27 00:00:00 13.1 3 Sudeste 8 Este 0 1026.1 1.4 94
2017-10-26 23:00:00 13.4 5 Este 8 Este 0 1025.5 1.2 92
2017-10-26 22:00:00 14.8 3 Este 11 Sudeste 0 1024.9 1.2 90
2017-10-26 21:00:00 15.9 6 Este 17 Este 0 1024.7 1.6 86
2017-10-26 20:00:00 17.7 0 Calma 13 Noroeste 0 1024.3 1.6 78
2017-10-26 19:00:00 19.7 11 Noroeste 15 Norte 0 1023.7 1.4 69
2017-10-26 18:00:00 21.9 9 Norte 18 Noroeste 0 1023.1 0.7 61
2017-10-26 17:00:00 23.2 9 Norte 22 Norte 0 1022.7 0.4 54
2017-10-26 16:00:00 23.5 15 Noroeste 30 Noroeste 0 1022.3 0.1 52
2017-10-26 15:00:00 23.7 17 Noroeste 30 Noroeste 0 1022.4 0.7 53
2017-10-26 14:00:00 22.7 15 Noroeste 24 Noroeste 0 1022.3 1 57
2017-10-26 13:00:00 22.4 10 Noroeste 17 Noroeste 0 1022.2 1.9 56
2017-10-26 12:00:00 21 5 Oeste 13 Oeste 0 1021.7 2.5 70
2017-10-26 11:00:00 19 8 Oeste 17 Oeste 0 1021.3 2.7 75
2017-10-26 10:00:00 16.9 2 Sudeste 11 Este 0 1020.3 2.4 66
2017-10-26 09:00:00 16.7 6 Nordeste 30 Este 0 1019.2 1.7 61
2017-10-26 08:00:00 15.5 6 Nordeste 17 Norte 0 1018.6 1.4 66
2017-10-26 07:00:00 14.9 13 Este 18 Este 0 1017.9 0.4 72
2017-10-26 06:00:00 13.8 3 Este 11 Este 0 1017.5 0.1 78
2017-10-26 05:00:00 13.4 3 Sudeste 8 Sudeste 0 1017.2 -0.3 80
2017-10-26 04:00:00 13.3 0 Calma 5 Sur 0 1017.5 0 85
2017-10-26 03:00:00 12.5 0 Calma 13 Este 0 1017.4 -0.4 91
2017-10-26 02:00:00 12.3 2 Noroeste 8 Oeste 0 1017.5 0.1 96
2017-10-26 01:00:00 12.7 2 Sudeste 8 Este 0 1017.5 0.2 96
2017-10-26 00:00:00 13.3 0 Calma 8 Noroeste 0 1017.8 0.7 96